createdAt,value
2018-05-04T00:03:06.108Z,7.20
2018-05-04T00:06:15.384Z,7.10
2018-05-04T00:09:25.420Z,7.00
2018-05-04T00:12:34.823Z,6.80
2018-05-04T00:15:45.068Z,6.90
2018-05-04T00:18:55.716Z,6.90
2018-05-04T00:22:05.179Z,6.90
2018-05-04T00:25:14.892Z,6.70
2018-05-04T00:28:25.097Z,6.60
2018-05-04T00:31:35.187Z,6.60
2018-05-04T00:34:44.574Z,6.50
2018-05-04T00:37:54.085Z,6.40
2018-05-04T00:41:04.459Z,6.50
2018-05-04T00:44:14.747Z,6.50
2018-05-04T00:47:26.553Z,6.40
2018-05-04T00:50:36.281Z,6.30
2018-05-04T00:54:03.523Z,6.30
2018-05-04T00:57:13.526Z,6.40
2018-05-04T01:00:22.847Z,6.40
2018-05-04T01:03:32.627Z,6.20
2018-05-04T01:06:41.899Z,6.40
2018-05-04T01:09:51.621Z,6.10
2018-05-04T01:13:01.507Z,6.00
2018-05-04T01:16:11.743Z,5.90
2018-05-04T01:19:21.947Z,6.00
2018-05-04T01:22:31.380Z,5.70
2018-05-04T01:25:40.875Z,5.70
2018-05-04T01:28:50.495Z,5.80
2018-05-04T01:31:59.988Z,5.80
2018-05-04T01:35:10.384Z,5.80
2018-05-04T01:38:19.943Z,5.80
2018-05-04T01:41:30.732Z,5.80
2018-05-04T01:44:40.136Z,5.90
2018-05-04T01:47:49.596Z,5.70
2018-05-04T01:50:59.552Z,5.60
2018-05-04T01:54:09.847Z,5.60
2018-05-04T01:57:20.044Z,5.40
2018-05-04T02:00:30.008Z,5.50
2018-05-04T02:03:40.256Z,5.20
2018-05-04T02:06:50.135Z,5.30
2018-05-04T02:09:59.725Z,5.20
2018-05-04T02:13:09.202Z,5.10
2018-05-04T02:16:19.411Z,5.20
2018-05-04T02:19:30.437Z,5.20
2018-05-04T02:22:40.540Z,5.10
2018-05-04T02:25:50.220Z,5.10
2018-05-04T02:29:00.305Z,5.00
2018-05-04T02:32:10.166Z,4.90
2018-05-04T02:35:20.421Z,4.70
2018-05-04T02:38:30.658Z,4.70
2018-05-04T02:41:40.512Z,4.70
2018-05-04T02:44:50.048Z,4.50
2018-05-04T02:47:59.929Z,4.60
2018-05-04T02:51:10.289Z,4.50
2018-05-04T02:54:20.188Z,4.30
2018-05-04T02:57:31.776Z,4.20
2018-05-04T03:00:42.133Z,4.10
2018-05-04T03:03:52.099Z,4.10
2018-05-04T03:07:01.538Z,4.10
2018-05-04T03:10:12.398Z,4.30
2018-05-04T03:13:22.756Z,4.30
2018-05-04T03:16:33.809Z,4.30
2018-05-04T03:22:54.741Z,4.10
2018-05-04T03:26:04.166Z,4.00
2018-05-04T03:29:13.613Z,3.80
2018-05-04T03:32:23.399Z,3.90
2018-05-04T03:35:33.839Z,4.00
2018-05-04T03:38:43.944Z,4.10
2018-05-04T03:41:53.811Z,3.80
2018-05-04T03:45:03.288Z,4.00
2018-05-04T03:51:24.090Z,4.10
2018-05-04T03:54:34.222Z,4.20
2018-05-04T03:58:02.110Z,4.10
2018-05-04T04:01:29.271Z,4.00
2018-05-04T04:04:39.044Z,3.90
2018-05-04T04:07:48.456Z,4.00
2018-05-04T04:10:58.369Z,4.30
2018-05-04T04:14:08.433Z,4.00
2018-05-04T04:17:18.531Z,4.10
2018-05-04T04:20:28.260Z,4.00
2018-05-04T04:23:38.119Z,4.40
2018-05-04T04:26:48.389Z,4.30
2018-05-04T04:29:58.286Z,4.40
2018-05-04T04:33:07.693Z,4.70
2018-05-04T04:36:17.134Z,4.60
2018-05-04T04:39:27.509Z,4.60
2018-05-04T04:42:37.681Z,4.70
2018-05-04T04:45:47.821Z,4.80
2018-05-04T04:48:58.135Z,4.80
2018-05-04T04:52:08.024Z,4.80
2018-05-04T04:55:18.478Z,4.90
2018-05-04T04:58:28.780Z,4.90
2018-05-04T05:01:38.623Z,5.00
2018-05-04T05:04:49.004Z,5.20
2018-05-04T05:07:58.691Z,5.20
2018-05-04T05:11:08.393Z,5.50
2018-05-04T05:14:18.595Z,5.60
2018-05-04T05:17:28.852Z,5.80
2018-05-04T05:20:39.108Z,5.80
2018-05-04T05:23:49.076Z,5.90
2018-05-04T05:27:02.325Z,6.20
2018-05-04T05:30:12.480Z,6.20
2018-05-04T05:33:22.653Z,6.40
2018-05-04T05:36:32.490Z,6.60
2018-05-04T05:39:42.431Z,6.60
2018-05-04T05:42:51.969Z,6.80
2018-05-04T05:46:01.725Z,6.80
2018-05-04T05:49:12.048Z,6.90
2018-05-04T05:52:23.231Z,6.80
2018-05-04T05:55:33.125Z,7.00
2018-05-04T05:58:42.624Z,7.10
2018-05-04T06:01:52.668Z,7.10
2018-05-04T06:05:02.436Z,7.50
2018-05-04T06:08:11.916Z,7.60
2018-05-04T06:11:21.788Z,7.70
2018-05-04T06:14:32.124Z,7.90
2018-05-04T06:17:43.237Z,8.00
2018-05-04T06:20:53.384Z,7.90
2018-05-04T06:24:03.877Z,8.20
2018-05-04T06:27:14.056Z,8.40
2018-05-04T06:30:24.283Z,8.50
2018-05-04T06:33:34.796Z,8.70
2018-05-04T06:36:44.702Z,8.80
2018-05-04T06:39:54.137Z,8.80
2018-05-04T06:43:03.995Z,9.10
2018-05-04T06:46:14.106Z,9.30
2018-05-04T06:49:24.303Z,9.30
2018-05-04T06:52:34.515Z,9.40
2018-05-04T06:55:44.723Z,9.40
2018-05-04T06:58:54.596Z,9.70
2018-05-04T07:02:04.036Z,10.00
2018-05-04T07:05:13.947Z,10.00
2018-05-04T07:08:24.135Z,10.20
2018-05-04T07:11:33.796Z,10.20
2018-05-04T07:14:43.708Z,10.40
2018-05-04T07:21:09.452Z,10.80
2018-05-04T07:24:19.344Z,10.90
2018-05-04T07:27:28.841Z,10.90
2018-05-04T07:30:38.292Z,11.10
2018-05-04T07:33:47.717Z,11.30
2018-05-04T07:36:57.935Z,11.40
2018-05-04T07:40:08.257Z,11.70
2018-05-04T07:43:17.693Z,11.60
2018-05-04T07:46:27.563Z,11.60
2018-05-04T07:49:37.382Z,11.70
2018-05-04T07:52:47.621Z,12.10
2018-05-04T07:55:57.325Z,12.00
2018-05-04T07:59:06.696Z,11.90
2018-05-04T08:02:16.062Z,12.10
2018-05-04T08:05:26.221Z,12.20
2018-05-04T08:08:35.693Z,12.70
2018-05-04T08:11:45.926Z,13.00
2018-05-04T08:14:55.341Z,12.90
2018-05-04T08:18:05.217Z,13.40
2018-05-04T08:21:14.865Z,13.30
2018-05-04T08:24:24.919Z,13.60
2018-05-04T08:27:34.999Z,13.50
2018-05-04T08:30:46.456Z,13.80
2018-05-04T08:33:55.781Z,13.60
2018-05-04T08:37:05.104Z,14.10
2018-05-04T08:40:15.181Z,14.60
2018-05-04T08:43:25.041Z,14.60
2018-05-04T08:46:35.260Z,14.90
2018-05-04T08:49:47.165Z,14.70
2018-05-04T08:52:56.559Z,15.30
2018-05-04T08:56:06.076Z,15.60
2018-05-04T08:59:17.321Z,15.80
2018-05-04T09:02:26.836Z,15.60
2018-05-04T09:05:36.221Z,16.00
2018-05-04T09:08:47.926Z,15.40
2018-05-04T09:11:57.297Z,15.60
2018-05-04T09:15:06.779Z,16.40
2018-05-04T09:18:16.340Z,16.40
2018-05-04T09:21:31.240Z,16.40
2018-05-04T09:24:41.242Z,16.60
2018-05-04T09:27:51.321Z,17.60
2018-05-04T09:31:00.983Z,19.70
2018-05-04T09:34:10.351Z,20.00
2018-05-04T09:37:20.050Z,20.20
2018-05-04T09:40:30.251Z,19.60
2018-05-04T09:43:39.613Z,19.90
2018-05-04T09:46:49.745Z,20.00
2018-05-04T09:49:59.228Z,19.10
2018-05-04T09:53:08.712Z,18.50
2018-05-04T09:56:18.211Z,18.70
2018-05-04T09:59:28.434Z,20.40
2018-05-04T10:02:37.776Z,21.90
2018-05-04T10:05:50.548Z,22.50
2018-05-04T10:09:00.849Z,22.60
2018-05-04T10:12:10.183Z,22.10
2018-05-04T10:15:19.643Z,23.40
2018-05-04T10:18:29.243Z,23.30
2018-05-04T10:21:38.560Z,23.40
2018-05-04T10:24:48.045Z,21.70
2018-05-04T10:27:57.870Z,20.40
2018-05-04T10:31:07.332Z,19.80
2018-05-04T10:34:18.549Z,21.00
2018-05-04T10:37:28.061Z,22.30
2018-05-04T10:40:37.893Z,20.30
2018-05-04T10:43:48.014Z,19.70
2018-05-04T10:46:57.772Z,20.30
2018-05-04T10:50:07.233Z,22.40
2018-05-04T10:53:16.482Z,21.80
2018-05-04T10:56:25.936Z,21.90
2018-05-04T10:59:35.333Z,22.40
2018-05-04T11:02:44.792Z,23.20
2018-05-04T11:05:55.576Z,22.20
2018-05-04T11:09:06.772Z,20.80
2018-05-04T11:12:16.409Z,19.90
2018-05-04T11:15:26.660Z,19.00
2018-05-04T11:18:36.876Z,19.40
2018-05-04T11:21:46.476Z,20.00
2018-05-04T11:24:55.979Z,20.20
2018-05-04T11:28:06.272Z,19.20
2018-05-04T11:31:15.779Z,19.40
2018-05-04T11:34:25.777Z,20.50
2018-05-04T11:37:35.361Z,20.50
2018-05-04T11:40:44.821Z,20.60
2018-05-04T11:43:55.079Z,20.30
2018-05-04T11:47:04.907Z,20.40
2018-05-04T11:50:14.800Z,20.80
2018-05-04T11:53:24.252Z,20.40
2018-05-04T11:56:34.732Z,22.40
2018-05-04T11:59:44.084Z,24.00
2018-05-04T12:02:55.832Z,23.70
2018-05-04T12:06:05.488Z,23.70
2018-05-04T12:09:15.260Z,22.50
2018-05-04T12:12:25.172Z,22.80
2018-05-04T12:15:35.433Z,23.70
2018-05-04T12:18:44.817Z,24.60
2018-05-04T12:21:56.759Z,24.90
2018-05-04T12:25:06.232Z,26.00
2018-05-04T12:28:15.682Z,26.30
2018-05-04T12:31:25.158Z,25.80
2018-05-04T12:34:35.529Z,24.50
2018-05-04T12:37:44.824Z,25.10
2018-05-04T12:40:54.741Z,24.50
2018-05-04T12:44:05.735Z,25.80
2018-05-04T12:47:15.179Z,25.30
2018-05-04T12:50:25.016Z,22.90
2018-05-04T12:53:34.520Z,23.30
2018-05-04T12:56:44.681Z,23.20
2018-05-04T12:59:54.180Z,25.00
2018-05-04T13:03:04.603Z,25.20
2018-05-04T13:06:14.060Z,26.20
2018-05-04T13:09:23.566Z,27.10
2018-05-04T13:12:33.750Z,27.10
2018-05-04T13:15:43.971Z,26.50
2018-05-04T13:18:53.433Z,26.90
2018-05-04T13:22:11.472Z,27.10
2018-05-04T13:25:20.975Z,26.30
2018-05-04T13:28:31.409Z,24.60
2018-05-04T13:31:40.893Z,25.50
2018-05-04T13:34:50.608Z,26.60
2018-05-04T13:38:00.556Z,27.80
2018-05-04T13:41:10.815Z,27.40
2018-05-04T13:44:20.439Z,26.60
2018-05-04T13:47:29.927Z,28.00
2018-05-04T13:50:39.769Z,28.80
2018-05-04T13:57:05.038Z,26.60
2018-05-04T14:00:14.396Z,26.00
2018-05-04T14:03:24.095Z,26.50
2018-05-04T14:06:34.807Z,27.20
2018-05-04T14:09:44.175Z,27.90
2018-05-04T14:12:53.652Z,26.40
2018-05-04T14:16:02.889Z,25.80
2018-05-04T14:19:12.896Z,25.90
2018-05-04T14:22:22.532Z,26.70
2018-05-04T14:25:33.553Z,27.10
2018-05-04T14:28:42.816Z,27.20
2018-05-04T14:31:52.315Z,28.30
2018-05-04T14:35:03.076Z,28.00
2018-05-04T14:38:12.404Z,27.60
2018-05-04T14:41:22.326Z,26.40
2018-05-04T14:44:32.033Z,27.50
2018-05-04T14:47:42.423Z,27.80
2018-05-04T14:50:51.882Z,28.20
2018-05-04T14:54:03.757Z,28.20
2018-05-04T14:57:13.143Z,27.40
2018-05-04T15:00:22.780Z,28.10
2018-05-04T15:03:32.292Z,28.80
2018-05-04T15:06:41.879Z,27.00
2018-05-04T15:09:51.309Z,26.90
2018-05-04T15:13:01.581Z,27.60
2018-05-04T15:16:10.838Z,27.60
2018-05-04T15:19:20.450Z,28.30
2018-05-04T15:22:29.899Z,29.40
2018-05-04T15:25:40.182Z,27.60
2018-05-04T15:28:49.651Z,27.30
2018-05-04T15:31:59.065Z,28.30
2018-05-04T15:35:08.544Z,28.70
2018-05-04T15:38:18.824Z,27.60
2018-05-04T15:41:28.829Z,27.00
2018-05-04T15:44:39.208Z,26.90
2018-05-04T15:47:49.336Z,27.40
2018-05-04T15:51:05.387Z,27.30
2018-05-04T15:54:14.704Z,27.80
2018-05-04T15:57:24.222Z,28.10
2018-05-04T16:00:33.646Z,27.10
2018-05-04T16:03:43.989Z,27.30
2018-05-04T16:06:53.391Z,28.70
2018-05-04T16:10:02.926Z,28.30
2018-05-04T16:13:12.442Z,28.00
2018-05-04T16:16:21.830Z,27.10
2018-05-04T16:19:31.360Z,26.80
2018-05-04T16:22:41.540Z,28.00
2018-05-04T16:25:51.475Z,27.40
2018-05-04T16:29:00.981Z,27.00
2018-05-04T16:32:10.362Z,27.20
2018-05-04T16:35:19.739Z,26.30
2018-05-04T16:38:29.137Z,26.60
2018-05-04T16:41:39.099Z,26.70
2018-05-04T16:44:49.307Z,26.10
2018-05-04T16:48:04.304Z,26.30
2018-05-04T16:51:13.691Z,26.40
2018-05-04T16:54:22.992Z,26.40
2018-05-04T16:57:33.360Z,26.10
2018-05-04T17:00:43.083Z,26.20
2018-05-04T17:03:52.517Z,26.80
2018-05-04T17:07:02.150Z,26.00
2018-05-04T17:10:11.552Z,25.90
2018-05-04T17:13:21.631Z,25.00
2018-05-04T17:16:31.908Z,25.10
2018-05-04T17:19:41.331Z,24.70
2018-05-04T17:22:50.623Z,25.90
2018-05-04T17:26:00.062Z,25.20
2018-05-04T17:29:14.796Z,25.40
2018-05-04T17:32:24.191Z,24.00
2018-05-04T17:35:33.666Z,24.00
2018-05-04T17:38:43.080Z,23.60
2018-05-04T17:41:52.555Z,22.60
2018-05-04T17:45:02.602Z,22.70
2018-05-04T17:48:12.865Z,23.30
2018-05-04T17:51:23.081Z,23.30
2018-05-04T17:54:32.975Z,23.30
2018-05-04T17:57:43.230Z,22.90
2018-05-04T18:00:53.364Z,22.40
2018-05-04T18:04:03.507Z,22.50
2018-05-04T18:07:13.792Z,21.90
2018-05-04T18:10:24.036Z,20.70
2018-05-04T18:13:34.334Z,19.80
2018-05-04T18:16:44.616Z,19.00
2018-05-04T18:19:54.950Z,18.40
2018-05-04T18:23:04.709Z,18.10
2018-05-04T18:26:14.575Z,17.80
2018-05-04T18:29:24.906Z,17.50
2018-05-04T18:32:34.244Z,17.20
2018-05-04T18:35:44.620Z,17.20
2018-05-04T18:38:54.119Z,16.80
2018-05-04T18:42:03.804Z,16.80
2018-05-04T18:45:14.272Z,16.60
2018-05-04T18:48:24.030Z,16.40
2018-05-04T18:51:33.340Z,16.60
2018-05-04T18:54:42.826Z,16.10
2018-05-04T18:57:52.751Z,16.20
2018-05-04T19:01:02.949Z,15.80
2018-05-04T19:04:14.418Z,15.70
2018-05-04T19:07:23.888Z,15.50
2018-05-04T19:10:34.121Z,15.50
2018-05-04T19:13:44.877Z,15.40
2018-05-04T19:16:55.067Z,15.20
2018-05-04T19:20:05.161Z,15.20
2018-05-04T19:23:15.838Z,15.10
2018-05-04T19:26:26.135Z,14.90
2018-05-04T19:29:36.584Z,14.80
2018-05-04T19:32:46.405Z,15.00
2018-05-04T19:35:55.617Z,14.60
2018-05-04T19:39:04.960Z,14.60
2018-05-04T19:42:16.576Z,14.40
2018-05-04T19:45:26.469Z,14.10
2018-05-04T19:48:37.090Z,14.40
2018-05-04T19:51:47.380Z,14.00
2018-05-04T19:54:57.164Z,14.20
2018-05-04T19:58:06.991Z,13.90
2018-05-04T20:01:17.550Z,13.80
2018-05-04T20:04:27.715Z,13.70
2018-05-04T20:07:37.534Z,13.70
2018-05-04T20:10:47.831Z,13.60
2018-05-04T20:13:59.461Z,13.60
2018-05-04T20:17:10.848Z,13.30
2018-05-04T20:20:24.973Z,13.30
2018-05-04T20:23:34.989Z,13.10
2018-05-04T20:26:45.730Z,13.10
2018-05-04T20:29:55.739Z,13.00
2018-05-04T20:33:06.294Z,13.10
2018-05-04T20:36:18.867Z,13.00
2018-05-04T20:39:28.347Z,12.70
2018-05-04T20:42:37.941Z,13.20
2018-05-04T20:45:47.396Z,13.00
2018-05-04T20:48:57.342Z,12.50
2018-05-04T20:52:06.743Z,12.40
2018-05-04T20:55:18.858Z,12.50
2018-05-04T20:58:29.275Z,12.50
2018-05-04T21:01:39.529Z,12.30
2018-05-04T21:04:48.999Z,12.20
2018-05-04T21:07:58.479Z,12.50
2018-05-04T21:11:08.465Z,12.30
2018-05-04T21:14:19.575Z,12.20
2018-05-04T21:17:29.421Z,11.90
2018-05-04T21:20:39.874Z,12.00
2018-05-04T21:23:49.782Z,11.50
2018-05-04T21:26:59.581Z,11.90
2018-05-04T21:30:09.419Z,11.70
2018-05-04T21:33:19.813Z,11.80
2018-05-04T21:36:29.950Z,11.70
2018-05-04T21:39:41.625Z,11.70
2018-05-04T21:42:51.663Z,11.60
2018-05-04T21:46:01.117Z,11.50
2018-05-04T21:49:10.931Z,11.60
2018-05-04T21:52:21.300Z,11.40
2018-05-04T21:55:30.660Z,11.60
2018-05-04T21:58:40.551Z,11.40
2018-05-04T22:01:49.994Z,11.60
2018-05-04T22:05:00.184Z,11.40
2018-05-04T22:08:09.668Z,11.40
2018-05-04T22:11:21.549Z,11.50
2018-05-04T22:14:31.875Z,11.40
2018-05-04T22:17:42.121Z,11.40
2018-05-04T22:20:52.183Z,11.30
2018-05-04T22:24:02.365Z,11.30
2018-05-04T22:27:12.979Z,11.20
2018-05-04T22:30:23.161Z,11.10
2018-05-04T22:33:32.935Z,11.10
2018-05-04T22:36:43.020Z,11.00
2018-05-04T22:39:53.324Z,11.10
2018-05-04T22:43:03.747Z,11.00
2018-05-04T22:46:13.644Z,10.90
2018-05-04T22:49:24.910Z,10.70
2018-05-04T22:52:34.141Z,10.90
2018-05-04T22:55:44.508Z,10.60
2018-05-04T22:58:54.016Z,10.80
2018-05-04T23:02:03.598Z,10.70
2018-05-04T23:05:13.729Z,10.60
2018-05-04T23:11:33.968Z,10.50
2018-05-04T23:14:43.455Z,10.30
2018-05-04T23:17:53.773Z,10.40
2018-05-04T23:21:07.852Z,10.40
2018-05-04T23:24:17.175Z,10.30
2018-05-04T23:27:26.983Z,10.20
2018-05-04T23:30:36.601Z,10.20
2018-05-04T23:33:50.263Z,10.10
2018-05-04T23:36:59.785Z,10.20
2018-05-04T23:40:09.237Z,10.20
2018-05-04T23:43:19.213Z,10.10
2018-05-04T23:46:28.523Z,9.80
2018-05-04T23:49:38.033Z,9.60
2018-05-04T23:52:51.643Z,9.80
2018-05-04T23:56:01.823Z,9.90
2018-05-04T23:59:11.221Z,10.00
